createdAt,value
2022-10-09T00:01:32.732Z,101898.28
2022-10-09T00:03:59.911Z,101893.13
2022-10-09T00:06:33.475Z,101895.91
2022-10-09T00:09:04.271Z,101898.69
2022-10-09T00:11:33.825Z,101890.09
2022-10-09T00:14:02.622Z,101880.19
2022-10-09T00:16:29.526Z,101883.66
2022-10-09T00:18:57.712Z,101878.53
2022-10-09T00:21:25.991Z,101883.00
2022-10-09T00:23:54.772Z,101880.63
2022-10-09T00:26:22.351Z,101873.69
2022-10-09T00:28:49.986Z,101876.72
2022-10-09T00:31:17.365Z,101870.06
2022-10-09T00:33:44.249Z,101871.34
2022-10-09T00:36:22.956Z,101873.28
2022-10-09T00:38:50.498Z,101873.47
2022-10-09T00:41:20.918Z,101871.66
2022-10-09T00:43:51.319Z,101870.66
2022-10-09T00:46:48.904Z,101874.97
2022-10-09T00:49:28.582Z,101876.09
2022-10-09T00:51:59.141Z,101875.13
2022-10-09T00:54:29.493Z,101876.09
2022-10-09T00:56:56.532Z,101872.63
2022-10-09T00:59:32.061Z,101874.56
2022-10-09T01:01:58.944Z,101869.44
2022-10-09T01:04:26.200Z,101865.97
2022-10-09T01:07:14.123Z,101862.47
2022-10-09T01:09:55.779Z,101859.00
2022-10-09T01:12:43.105Z,101860.09
2022-10-09T01:15:19.725Z,101864.00
2022-10-09T01:18:12.118Z,101853.41
2022-10-09T01:20:48.248Z,101855.38
2022-10-09T01:23:45.870Z,101842.31
2022-10-09T01:26:30.620Z,101847.06
2022-10-09T01:29:01.662Z,101846.34
2022-10-09T01:31:31.340Z,101846.50
2022-10-09T01:34:01.813Z,101843.31
2022-10-09T01:36:31.308Z,101840.81
2022-10-09T01:39:01.728Z,101842.63
2022-10-09T01:41:29.641Z,101837.50
2022-10-09T01:43:56.417Z,101839.97
2022-10-09T01:46:33.419Z,101831.06
2022-10-09T01:49:08.761Z,101823.03
2022-10-09T01:51:45.594Z,101832.63
2022-10-09T01:54:17.569Z,101827.59
2022-10-09T01:56:49.045Z,101818.31
2022-10-09T01:59:30.977Z,101820.81
2022-10-09T02:02:00.642Z,101811.47
2022-10-09T02:04:30.202Z,101804.81
2022-10-09T02:06:57.176Z,101803.31
2022-10-09T02:09:26.450Z,101799.72
2022-10-09T02:11:58.118Z,101790.78
2022-10-09T02:14:24.915Z,101789.13
2022-10-09T02:17:03.133Z,101786.75
2022-10-09T02:19:35.087Z,101779.81
2022-10-09T02:22:14.159Z,101780.13
2022-10-09T02:24:42.624Z,101778.56
2022-10-09T02:27:11.318Z,101772.75
2022-10-09T02:29:43.335Z,101772.09
2022-10-09T02:32:11.149Z,101766.94
2022-10-09T02:34:38.281Z,101758.47
2022-10-09T02:37:05.987Z,101761.38
2022-10-09T02:39:33.065Z,101764.56
2022-10-09T02:41:59.927Z,101768.03
2022-10-09T02:44:27.071Z,101761.13
2022-10-09T02:46:53.863Z,101755.97
2022-10-09T02:49:30.059Z,101748.88
2022-10-09T02:51:58.030Z,101749.56
2022-10-09T02:54:24.778Z,101736.53
2022-10-09T02:56:51.529Z,101742.47
2022-10-09T02:59:18.347Z,101739.69
2022-10-09T03:01:45.216Z,101736.94
2022-10-09T03:04:12.156Z,101728.00
2022-10-09T03:06:38.991Z,101729.66
2022-10-09T03:09:05.985Z,101729.53
2022-10-09T03:11:32.743Z,101730.38
2022-10-09T03:13:59.609Z,101728.56
2022-10-09T03:16:27.041Z,101733.56
2022-10-09T03:18:54.401Z,101725.19
2022-10-09T03:21:24.253Z,101725.88
2022-10-09T03:23:51.342Z,101724.91
2022-10-09T03:26:21.534Z,101717.97
2022-10-09T03:28:50.269Z,101720.47
2022-10-09T03:31:46.532Z,101716.84
2022-10-09T03:34:05.583Z,101711.00
2022-10-09T03:36:32.477Z,101708.50
2022-10-09T03:39:00.259Z,101706.03
2022-10-09T03:41:27.172Z,101702.69
2022-10-09T03:43:53.905Z,101701.88
2022-10-09T03:46:20.934Z,101700.19
2022-10-09T03:48:47.794Z,101697.56
2022-10-09T03:51:14.495Z,101693.66
2022-10-09T03:53:41.285Z,101693.66
2022-10-09T03:56:08.019Z,101683.09
2022-10-09T03:58:34.778Z,101686.72
2022-10-09T04:01:01.948Z,101686.41
2022-10-09T04:03:29.175Z,101682.28
2022-10-09T04:05:55.965Z,101679.47
2022-10-09T04:08:28.982Z,101681.97
2022-10-09T04:11:00.012Z,101681.25
2022-10-09T04:13:26.929Z,101676.16
2022-10-09T04:15:55.067Z,101669.06
2022-10-09T04:18:23.004Z,101669.72
2022-10-09T04:20:51.534Z,101670.69
2022-10-09T04:23:19.952Z,101662.25
2022-10-09T04:25:47.120Z,101662.38
2022-10-09T04:28:25.050Z,101653.81
2022-10-09T04:30:52.336Z,101661.72
2022-10-09T04:33:19.483Z,101663.66
2022-10-09T04:35:50.188Z,101658.38
2022-10-09T04:38:18.677Z,101667.56
2022-10-09T04:40:46.270Z,101663.97
2022-10-09T04:43:13.044Z,101657.31
2022-10-09T04:45:40.732Z,101645.75
2022-10-09T04:48:07.508Z,101650.75
2022-10-09T04:50:34.307Z,101645.03
2022-10-09T04:53:01.260Z,101646.84
2022-10-09T04:55:28.009Z,101643.09
2022-10-09T04:57:54.763Z,101644.59
2022-10-09T05:00:21.562Z,101640.16
2022-10-09T05:02:48.784Z,101632.94
2022-10-09T05:05:15.768Z,101635.72
2022-10-09T05:07:42.541Z,101629.59
2022-10-09T05:10:09.448Z,101632.09
2022-10-09T05:12:36.243Z,101629.16
2022-10-09T05:15:03.176Z,101631.78
2022-10-09T05:17:29.960Z,101628.31
2022-10-09T05:19:56.921Z,101632.75
2022-10-09T05:22:23.746Z,101627.47
2022-10-09T05:24:50.504Z,101624.84
2022-10-09T05:27:17.340Z,101631.09
2022-10-09T05:29:44.077Z,101624.19
2022-10-09T05:32:10.872Z,101622.66
2022-10-09T05:34:37.702Z,101626.13
2022-10-09T05:37:04.539Z,101614.06
2022-10-09T05:39:32.637Z,101619.34
2022-10-09T05:41:59.390Z,101616.84
2022-10-09T05:44:26.189Z,101619.47
2022-10-09T05:46:52.980Z,101618.78
2022-10-09T05:49:19.765Z,101622.38
2022-10-09T05:51:46.620Z,101619.75
2022-10-09T05:54:15.785Z,101621.59
2022-10-09T05:56:43.718Z,101608.38
2022-10-09T05:59:15.445Z,101617.94
2022-10-09T06:01:44.840Z,101615.47
2022-10-09T06:04:17.272Z,101608.53
2022-10-09T06:06:44.993Z,101610.63
2022-10-09T06:09:12.085Z,101616.88
2022-10-09T06:11:40.290Z,101608.28
2022-10-09T06:14:08.966Z,101607.44
2022-10-09T06:16:38.075Z,101618.56
2022-10-09T06:19:06.789Z,101617.72
2022-10-09T06:21:34.292Z,101612.56
2022-10-09T06:24:03.014Z,101611.59
2022-10-09T06:26:30.740Z,101612.56
2022-10-09T06:28:59.368Z,101610.06
2022-10-09T06:31:28.966Z,101612.44
2022-10-09T06:33:56.158Z,101608.78
2022-10-09T06:36:25.317Z,101608.78
2022-10-09T06:38:53.386Z,101600.22
2022-10-09T06:41:22.949Z,101608.13
2022-10-09T06:44:01.132Z,101604.66
2022-10-09T06:46:37.022Z,101609.09
2022-10-09T06:49:04.878Z,101607.16
2022-10-09T06:51:32.691Z,101599.25
2022-10-09T06:54:02.518Z,101604.34
2022-10-09T06:56:31.603Z,101603.50
2022-10-09T06:59:03.111Z,101595.47
2022-10-09T07:01:32.634Z,101598.94
2022-10-09T07:04:05.902Z,101586.56
2022-10-09T07:06:35.050Z,101591.72
2022-10-09T07:09:05.127Z,101586.25
2022-10-09T07:11:37.102Z,101594.88
2022-10-09T07:14:06.697Z,101588.75
2022-10-09T07:16:41.780Z,101588.91
2022-10-09T07:19:11.557Z,101579.16
2022-10-09T07:21:41.753Z,101581.53
2022-10-09T07:24:09.165Z,101581.53
2022-10-09T07:26:38.189Z,101582.19
2022-10-09T07:29:07.192Z,101574.13
2022-10-09T07:31:34.229Z,101575.13
2022-10-09T07:34:02.024Z,101580.91
2022-10-09T07:36:28.851Z,101577.03
2022-10-09T07:38:57.412Z,101582.97
2022-10-09T07:41:26.813Z,101584.31
2022-10-09T07:43:53.690Z,101584.06
2022-10-09T07:46:23.114Z,101581.94
2022-10-09T07:48:51.059Z,101579.00
2022-10-09T07:51:22.541Z,101580.50
2022-10-09T07:53:50.150Z,101582.69
2022-10-09T07:56:22.280Z,101575.16
2022-10-09T07:58:51.637Z,101574.97
2022-10-09T08:01:20.524Z,101580.25
2022-10-09T08:03:48.209Z,101577.44
2022-10-09T08:06:15.168Z,101579.63
2022-10-09T08:08:42.147Z,101571.84
2022-10-09T08:11:11.189Z,101572.97
2022-10-09T08:13:38.730Z,101575.63
2022-10-09T08:16:06.499Z,101579.25
2022-10-09T08:18:34.069Z,101573.97
2022-10-09T08:21:03.433Z,101566.88
2022-10-09T08:23:30.414Z,101554.84
2022-10-09T08:25:57.243Z,101564.13
2022-10-09T08:28:24.414Z,101555.72
2022-10-09T08:30:51.408Z,101553.44
2022-10-09T08:33:23.540Z,101554.63
2022-10-09T08:35:51.404Z,101556.97
2022-10-09T08:38:46.202Z,101559.00
2022-10-09T08:41:49.854Z,101554.75
2022-10-09T08:44:22.434Z,101560.53
2022-10-09T08:47:08.288Z,101554.91
2022-10-09T08:49:49.857Z,101556.94
2022-10-09T08:52:36.971Z,101554.00
2022-10-09T08:55:13.808Z,101551.38
2022-10-09T08:57:40.656Z,101553.25
2022-10-09T09:00:15.337Z,101547.16
2022-10-09T09:03:03.507Z,101541.75
2022-10-09T09:05:55.801Z,101541.78
2022-10-09T09:08:55.556Z,101545.63
2022-10-09T09:11:25.158Z,101535.56
2022-10-09T09:14:10.853Z,101536.25
2022-10-09T09:16:56.266Z,101529.47
2022-10-09T09:19:34.831Z,101528.97
2022-10-09T09:22:02.292Z,101527.16
2022-10-09T09:24:38.447Z,101524.31
2022-10-09T09:27:13.976Z,101521.84
2022-10-09T09:29:48.896Z,101516.75
2022-10-09T09:32:20.834Z,101511.41
2022-10-09T09:34:47.807Z,101511.38
2022-10-09T09:37:15.632Z,101509.88
2022-10-09T09:42:33.051Z,101509.84
2022-10-09T09:45:04.332Z,101502.84
2022-10-09T09:47:40.625Z,101494.22
2022-10-09T09:50:18.502Z,101498.50
2022-10-09T09:52:55.930Z,101494.78
2022-10-09T09:55:31.145Z,101496.75
2022-10-09T09:58:04.324Z,101492.75
2022-10-09T10:00:32.594Z,101489.41
2022-10-09T10:03:18.478Z,101485.38
2022-10-09T10:05:45.606Z,101488.50
2022-10-09T10:08:36.546Z,101487.81
2022-10-09T10:11:09.223Z,101466.19
2022-10-09T10:13:47.215Z,101466.72
2022-10-09T10:16:24.963Z,101469.03
2022-10-09T10:18:53.459Z,101464.66
2022-10-09T10:21:20.778Z,101461.47
2022-10-09T10:23:58.807Z,101451.00
2022-10-09T10:26:58.554Z,101455.69
2022-10-09T10:29:46.858Z,101451.19
2022-10-09T10:32:32.535Z,101445.69
2022-10-09T10:35:01.925Z,101436.56
2022-10-09T10:37:38.892Z,101429.69
2022-10-09T10:40:26.640Z,101432.81
2022-10-09T10:43:11.654Z,101431.44
2022-10-09T10:45:44.047Z,101413.31
2022-10-09T10:48:33.775Z,101404.81
2022-10-09T10:51:25.328Z,101408.56
2022-10-09T10:54:16.734Z,101401.22
2022-10-09T10:56:49.360Z,101395.53
2022-10-09T10:59:39.990Z,101398.69
2022-10-09T11:02:21.808Z,101390.50
2022-10-09T11:05:00.637Z,101393.00
2022-10-09T11:07:42.149Z,101380.53
2022-10-09T11:10:24.211Z,101377.03
2022-10-09T11:13:01.453Z,101362.28
2022-10-09T11:15:38.451Z,101363.13
2022-10-09T11:18:43.093Z,101359.63
2022-10-09T11:21:15.830Z,101358.81
2022-10-09T11:23:56.741Z,101343.28
2022-10-09T11:26:36.860Z,101347.88
2022-10-09T11:29:18.733Z,101341.63
2022-10-09T11:31:59.084Z,101333.94
2022-10-09T11:34:36.245Z,101325.22
2022-10-09T11:37:09.158Z,101329.81
2022-10-09T11:39:38.107Z,101329.63
2022-10-09T11:42:06.186Z,101328.06
2022-10-09T11:44:32.924Z,101312.34
2022-10-09T11:47:32.101Z,101317.59
2022-10-09T11:50:32.437Z,101310.88
2022-10-09T11:53:12.093Z,101304.16
2022-10-09T11:55:39.270Z,101301.31
2022-10-09T11:58:29.386Z,101296.81
2022-10-09T12:01:22.485Z,101297.00
2022-10-09T12:04:05.206Z,101291.31
2022-10-09T12:06:33.389Z,101291.13
2022-10-09T12:09:08.478Z,101281.94
2022-10-09T12:11:35.690Z,101290.38
2022-10-09T12:14:06.065Z,101284.84
2022-10-09T12:16:45.807Z,101282.19
2022-10-09T12:19:20.712Z,101279.53
2022-10-09T12:21:52.017Z,101273.19
2022-10-09T12:24:26.511Z,101264.00
2022-10-09T12:26:57.059Z,101263.16
2022-10-09T12:29:27.928Z,101262.97
2022-10-09T12:31:59.215Z,101255.25
2022-10-09T12:34:38.057Z,101251.59
2022-10-09T12:37:12.486Z,101239.91
2022-10-09T12:39:51.124Z,101234.59
2022-10-09T12:42:23.220Z,101227.78
2022-10-09T12:44:54.230Z,101222.66
2022-10-09T12:47:29.532Z,101218.78
2022-10-09T12:49:57.882Z,101210.41
2022-10-09T12:52:48.689Z,101211.88
2022-10-09T12:55:31.586Z,101210.88
2022-10-09T12:58:03.636Z,101202.50
2022-10-09T13:00:32.702Z,101210.28
2022-10-09T13:02:59.831Z,101205.41
2022-10-09T13:05:41.047Z,101201.16
2022-10-09T13:08:35.191Z,101198.91
2022-10-09T13:11:13.076Z,101185.41
2022-10-09T13:13:40.352Z,101185.22
2022-10-09T13:16:09.738Z,101180.91
2022-10-09T13:18:38.299Z,101178.22
2022-10-09T13:21:25.085Z,101173.09
2022-10-09T13:23:51.878Z,101158.75
2022-10-09T13:26:28.019Z,101154.44
2022-10-09T13:28:56.541Z,101146.63
2022-10-09T13:31:23.441Z,101145.84
2022-10-09T13:33:50.723Z,101153.63
2022-10-09T13:36:19.575Z,101149.13
2022-10-09T13:38:47.926Z,101140.13
2022-10-09T13:41:22.388Z,101134.38
2022-10-09T13:43:51.061Z,101138.50
2022-10-09T13:46:18.006Z,101131.13
2022-10-09T13:48:44.980Z,101126.63
2022-10-09T13:51:12.122Z,101121.28
2022-10-09T13:53:39.267Z,101110.28
2022-10-09T13:56:07.938Z,101104.94
2022-10-09T13:58:34.685Z,101097.78
2022-10-09T14:01:01.591Z,101090.59
2022-10-09T14:03:28.539Z,101084.22
2022-10-09T14:06:00.128Z,101078.72
2022-10-09T14:08:34.203Z,101081.38
2022-10-09T14:11:15.141Z,101080.75
2022-10-09T14:13:41.988Z,101071.13
2022-10-09T14:16:11.266Z,101069.28
2022-10-09T14:18:38.064Z,101063.31
2022-10-09T14:21:15.321Z,101055.31
2022-10-09T14:23:43.287Z,101054.09
2022-10-09T14:26:10.094Z,101052.25
2022-10-09T14:28:37.570Z,101042.00
2022-10-09T14:31:17.987Z,101044.03
2022-10-09T14:33:46.153Z,101045.44
2022-10-09T14:36:16.261Z,101044.44
2022-10-09T14:38:43.131Z,101045.63
2022-10-09T14:41:10.537Z,101027.41
2022-10-09T14:43:37.339Z,101027.41
2022-10-09T14:46:05.050Z,101028.41
2022-10-09T14:48:34.998Z,101021.03
2022-10-09T14:51:07.214Z,101009.53
2022-10-09T14:53:34.371Z,101010.56
2022-10-09T14:56:06.211Z,101005.22
2022-10-09T14:58:35.013Z,101004.44
2022-10-09T15:01:02.433Z,101005.44
2022-10-09T15:03:30.759Z,101005.81
2022-10-09T15:06:06.089Z,100999.25
2022-10-09T15:08:35.967Z,100992.69
2022-10-09T15:11:03.281Z,100994.53
2022-10-09T15:13:32.030Z,101005.34
2022-10-09T15:16:03.661Z,100990.38
2022-10-09T15:18:31.842Z,100988.78
2022-10-09T15:20:59.948Z,100990.63
2022-10-09T15:23:30.742Z,100983.44
2022-10-09T15:25:59.579Z,100981.38
2022-10-09T15:28:35.853Z,100979.75
2022-10-09T15:31:19.986Z,100979.75
2022-10-09T15:33:46.769Z,100966.84
2022-10-09T15:36:13.505Z,100966.84
2022-10-09T15:38:40.637Z,100966.84
2022-10-09T15:41:07.455Z,100966.19
2022-10-09T15:43:37.654Z,100965.41
2022-10-09T15:46:07.284Z,100959.84
2022-10-09T15:48:35.183Z,100956.94
2022-10-09T15:51:07.178Z,100944.22
2022-10-09T15:53:33.973Z,100945.63
2022-10-09T15:56:05.543Z,100926.75
2022-10-09T15:58:32.818Z,100933.31
2022-10-09T16:01:07.024Z,100917.09
2022-10-09T16:03:37.137Z,100916.63
2022-10-09T16:06:07.514Z,100908.88
2022-10-09T16:08:34.776Z,100909.25
2022-10-09T16:11:05.854Z,100899.81
2022-10-09T16:13:35.141Z,100888.53
2022-10-09T16:16:05.643Z,100886.88
2022-10-09T16:18:33.017Z,100872.16
2022-10-09T16:21:07.720Z,100868.28
2022-10-09T16:23:35.012Z,100866.41
2022-10-09T16:26:04.242Z,100860.88
2022-10-09T16:28:31.450Z,100859.81
2022-10-09T16:30:58.517Z,100859.56
2022-10-09T16:33:25.772Z,100866.09
2022-10-09T16:35:52.560Z,100863.00
2022-10-09T16:38:28.774Z,100870.97
2022-10-09T16:41:02.926Z,100864.00
2022-10-09T16:43:33.997Z,100869.53
2022-10-09T16:46:16.932Z,100872.19
2022-10-09T16:48:44.356Z,100871.56
2022-10-09T16:51:17.145Z,100865.59
2022-10-09T16:53:44.062Z,100871.56
2022-10-09T16:56:16.283Z,100872.97
2022-10-09T16:58:44.164Z,100868.25
2022-10-09T17:01:12.109Z,100877.59
2022-10-09T17:03:41.385Z,100884.50
2022-10-09T17:06:10.459Z,100880.00
2022-10-09T17:08:37.569Z,100880.16
2022-10-09T17:11:09.420Z,100880.56
2022-10-09T17:13:37.251Z,100881.75
2022-10-09T17:16:18.457Z,100880.13
2022-10-09T17:18:46.551Z,100883.78
2022-10-09T17:21:14.404Z,100881.69
2022-10-09T17:23:41.730Z,100881.91
2022-10-09T17:26:11.956Z,100890.91
2022-10-09T17:28:40.194Z,100892.91
2022-10-09T17:31:09.641Z,100899.22
2022-10-09T17:33:41.261Z,100903.09
2022-10-09T17:36:09.108Z,100900.63
2022-10-09T17:38:36.275Z,100905.31
2022-10-09T17:41:07.931Z,100907.34
2022-10-09T17:43:34.868Z,100911.00
2022-10-09T17:46:01.815Z,100919.16
2022-10-09T17:48:29.338Z,100914.06
2022-10-09T17:50:58.058Z,100912.41
2022-10-09T17:53:25.268Z,100915.41
2022-10-09T17:55:54.161Z,100911.47
2022-10-09T17:58:26.355Z,100904.91
2022-10-09T18:00:53.193Z,100910.78
2022-10-09T18:03:20.700Z,100919.97
2022-10-09T18:05:49.372Z,100911.91
2022-10-09T18:08:20.205Z,100916.78
2022-10-09T18:10:47.206Z,100916.31
2022-10-09T18:13:14.394Z,100920.81
2022-10-09T18:15:43.365Z,100914.88
2022-10-09T18:18:20.347Z,100915.22
2022-10-09T18:20:47.374Z,100919.28
2022-10-09T18:23:14.298Z,100911.69
2022-10-09T18:25:42.973Z,100905.13
2022-10-09T18:28:11.101Z,100905.13
2022-10-09T18:30:46.450Z,100909.63
2022-10-09T18:33:13.268Z,100901.81
2022-10-09T18:35:40.279Z,100899.34
2022-10-09T18:38:15.591Z,100905.03
2022-10-09T18:40:45.858Z,100900.56
2022-10-09T18:43:12.989Z,100896.44
2022-10-09T18:45:45.975Z,100901.13
2022-10-09T18:48:23.511Z,100898.00
2022-10-09T18:50:50.446Z,100899.19
2022-10-09T18:53:17.359Z,100899.38
2022-10-09T18:55:44.451Z,100905.69
2022-10-09T18:58:12.832Z,100898.94
2022-10-09T19:00:40.331Z,100892.16
2022-10-09T19:03:07.437Z,100889.50
2022-10-09T19:05:34.393Z,100890.53
2022-10-09T19:08:01.165Z,100881.91
2022-10-09T19:10:28.085Z,100884.97
2022-10-09T19:12:55.355Z,100885.31
2022-10-09T19:15:22.520Z,100885.31
2022-10-09T19:17:49.775Z,100885.03
2022-10-09T19:20:16.738Z,100880.94
2022-10-09T19:22:43.558Z,100874.34
2022-10-09T19:25:11.086Z,100866.75
2022-10-09T19:27:38.115Z,100870.63
2022-10-09T19:30:05.851Z,100863.00
2022-10-09T19:32:32.584Z,100852.56
2022-10-09T19:34:59.428Z,100853.59
2022-10-09T19:37:29.608Z,100843.00
2022-10-09T19:39:57.469Z,100842.19
2022-10-09T19:42:25.020Z,100834.53
2022-10-09T19:44:51.816Z,100834.09
2022-10-09T19:47:19.555Z,100833.81
2022-10-09T19:49:46.462Z,100834.19
2022-10-09T19:52:13.401Z,100826.59
2022-10-09T19:54:40.464Z,100833.94
2022-10-09T19:57:07.440Z,100830.63
2022-10-09T19:59:34.242Z,100825.72
2022-10-09T20:02:01.020Z,100825.72
2022-10-09T20:04:27.983Z,100825.06
2022-10-09T20:06:54.764Z,100818.09
2022-10-09T20:09:21.681Z,100824.59
2022-10-09T20:11:48.767Z,100824.78
2022-10-09T20:14:15.631Z,100823.13
2022-10-09T20:16:42.532Z,100820.66
2022-10-09T20:19:09.357Z,100822.31
2022-10-09T20:21:36.206Z,100811.69
2022-10-09T20:24:03.117Z,100798.00
2022-10-09T20:26:31.675Z,100809.59
2022-10-09T20:28:58.986Z,100812.63
2022-10-09T20:31:27.145Z,100812.34
2022-10-09T20:33:55.877Z,100816.19
2022-10-09T20:36:35.449Z,100817.16
2022-10-09T20:39:05.696Z,100814.91
2022-10-09T20:41:33.337Z,100806.28
2022-10-09T20:44:01.803Z,100808.94
2022-10-09T20:46:31.249Z,100808.31
2022-10-09T20:48:58.178Z,100814.25
2022-10-09T20:51:26.121Z,100813.25
2022-10-09T20:53:58.758Z,100816.91
2022-10-09T20:56:29.078Z,100802.03
2022-10-09T20:58:57.262Z,100803.84
2022-10-09T21:01:24.287Z,100807.50
2022-10-09T21:03:52.139Z,100807.50
2022-10-09T21:06:21.154Z,100808.31
2022-10-09T21:08:48.378Z,100804.84
2022-10-09T21:11:17.393Z,100811.97
2022-10-09T21:13:45.796Z,100815.06
2022-10-09T21:16:15.669Z,100808.59
2022-10-09T21:18:42.456Z,100807.59
2022-10-09T21:21:15.579Z,100804.56
2022-10-09T21:23:43.857Z,100802.75
2022-10-09T21:26:17.752Z,100804.56
2022-10-09T21:28:44.802Z,100795.34
2022-10-09T21:31:15.157Z,100803.31
2022-10-09T21:33:41.910Z,100804.94
2022-10-09T21:36:19.747Z,100806.41
2022-10-09T21:38:46.568Z,100799.94
2022-10-09T21:41:13.516Z,100796.44
2022-10-09T21:43:40.315Z,100796.91
2022-10-09T21:46:07.086Z,100790.44
2022-10-09T21:48:33.899Z,100795.53
2022-10-09T21:51:00.762Z,100795.34
2022-10-09T21:53:27.638Z,100787.41
2022-10-09T21:55:54.436Z,100786.31
2022-10-09T21:58:23.842Z,100789.50
2022-10-09T22:01:01.786Z,100788.69
2022-10-09T22:03:31.504Z,100778.06
2022-10-09T22:05:59.632Z,100772.13
2022-10-09T22:08:27.655Z,100767.84
2022-10-09T22:10:54.456Z,100772.50
2022-10-09T22:13:21.929Z,100763.44
2022-10-09T22:15:51.301Z,100764.66
2022-10-09T22:18:20.365Z,100759.16
2022-10-09T22:20:50.276Z,100757.53
2022-10-09T22:23:21.263Z,100747.09
2022-10-09T22:25:59.262Z,100747.09
2022-10-09T22:28:26.718Z,100739.34
2022-10-09T22:31:08.916Z,100738.50
2022-10-09T22:33:36.178Z,100737.88
2022-10-09T22:36:15.711Z,100728.13
2022-10-09T22:38:44.071Z,100723.81
2022-10-09T22:41:14.144Z,100723.16
2022-10-09T22:43:42.009Z,100718.25
2022-10-09T22:46:18.912Z,100717.41
2022-10-09T22:48:46.105Z,100710.47
2022-10-09T22:51:15.996Z,100715.31
2022-10-09T22:53:44.308Z,100710.19
2022-10-09T22:56:17.302Z,100716.03
2022-10-09T22:58:44.768Z,100713.56
2022-10-09T23:01:19.195Z,100706.00
2022-10-09T23:03:46.013Z,100704.19
2022-10-09T23:06:16.069Z,100703.78
2022-10-09T23:08:45.152Z,100700.16
2022-10-09T23:11:13.078Z,100702.63
2022-10-09T23:13:40.085Z,100698.16
2022-10-09T23:16:09.756Z,100695.50
2022-10-09T23:18:36.540Z,100696.13
2022-10-09T23:21:05.351Z,100674.31
2022-10-09T23:23:34.164Z,100690.00
2022-10-09T23:26:13.631Z,100683.88
2022-10-09T23:28:41.494Z,100683.06
2022-10-09T23:31:13.227Z,100666.53
2022-10-09T23:33:41.513Z,100668.53
2022-10-09T23:36:09.963Z,100666.09
2022-10-09T23:38:37.435Z,100661.97
2022-10-09T23:41:08.214Z,100671.13
2022-10-09T23:43:37.149Z,100676.22
2022-10-09T23:46:06.333Z,100662.97
2022-10-09T23:48:34.337Z,100667.66
2022-10-09T23:51:01.450Z,100674.13
2022-10-09T23:53:28.817Z,100668.81
2022-10-09T23:55:55.633Z,100680.63
2022-10-09T23:58:26.374Z,100681.44
